createdAt,value
2022-08-19T00:00:11.895Z,70.94
2022-08-19T00:02:59.930Z,71.01
2022-08-19T00:05:28.518Z,71.02
2022-08-19T00:07:56.714Z,70.93
2022-08-19T00:10:25.616Z,70.92
2022-08-19T00:12:54.173Z,70.71
2022-08-19T00:15:23.265Z,70.60
2022-08-19T00:17:51.433Z,70.47
2022-08-19T00:20:22.469Z,70.69
2022-08-19T00:22:50.797Z,70.92
2022-08-19T00:25:19.432Z,71.06
2022-08-19T00:28:00.113Z,71.31
2022-08-19T00:30:31.392Z,71.34
2022-08-19T00:33:00.344Z,71.45
2022-08-19T00:35:28.592Z,71.47
2022-08-19T00:37:57.348Z,71.73
2022-08-19T00:40:26.731Z,71.74
2022-08-19T00:42:55.014Z,71.79
2022-08-19T00:45:28.067Z,71.86
2022-08-19T00:47:56.071Z,72.39
2022-08-19T00:50:24.943Z,72.76
2022-08-19T00:52:54.500Z,72.78
2022-08-19T00:55:25.800Z,72.93
2022-08-19T00:58:02.590Z,72.84
2022-08-19T01:00:32.181Z,72.76
2022-08-19T01:03:00.350Z,72.91
2022-08-19T01:05:30.669Z,72.75
2022-08-19T01:08:01.827Z,72.48
2022-08-19T01:10:36.803Z,72.58
2022-08-19T01:13:06.053Z,72.36
2022-08-19T01:15:39.550Z,72.51
2022-08-19T01:18:10.575Z,72.47
2022-08-19T01:20:40.531Z,72.58
2022-08-19T01:23:09.141Z,72.71
2022-08-19T01:25:45.867Z,73.02
2022-08-19T01:28:34.027Z,73.50
2022-08-19T01:31:27.226Z,73.22
2022-08-19T01:33:58.006Z,73.23
2022-08-19T01:36:32.579Z,73.18
2022-08-19T01:39:02.762Z,73.13
2022-08-19T01:41:30.925Z,73.25
2022-08-19T01:44:13.585Z,73.19
2022-08-19T01:46:49.524Z,73.28
2022-08-19T01:49:19.824Z,73.16
2022-08-19T01:51:48.979Z,73.17
2022-08-19T01:54:27.324Z,73.07
2022-08-19T01:57:02.059Z,73.05
2022-08-19T01:59:31.409Z,73.09
2022-08-19T02:02:00.663Z,73.05
2022-08-19T02:04:28.702Z,72.80
2022-08-19T02:06:58.486Z,72.93
2022-08-19T02:09:27.029Z,73.01
2022-08-19T02:11:55.067Z,72.77
2022-08-19T02:14:23.372Z,72.64
2022-08-19T02:16:51.655Z,72.65
2022-08-19T02:19:19.829Z,72.68
2022-08-19T02:21:47.921Z,72.66
2022-08-19T02:24:16.179Z,72.58
2022-08-19T02:26:44.346Z,72.78
2022-08-19T02:29:12.730Z,72.54
2022-08-19T02:31:41.112Z,72.72
2022-08-19T02:34:09.796Z,72.79
2022-08-19T02:36:37.964Z,72.51
2022-08-19T02:39:11.723Z,72.75
2022-08-19T02:41:39.947Z,72.81
2022-08-19T02:44:29.497Z,72.99
2022-08-19T02:46:56.673Z,73.14
2022-08-19T02:49:24.848Z,73.38
2022-08-19T02:51:52.943Z,73.66
2022-08-19T02:54:21.099Z,73.71
2022-08-19T02:56:49.042Z,73.85
2022-08-19T02:59:17.034Z,73.75
2022-08-19T03:01:46.804Z,73.81
2022-08-19T03:04:16.867Z,74.07
2022-08-19T03:06:48.124Z,74.52
2022-08-19T03:09:17.412Z,74.62
2022-08-19T03:11:46.466Z,74.74
2022-08-19T03:14:17.142Z,75.09
2022-08-19T03:16:48.673Z,75.33
2022-08-19T03:19:20.161Z,75.47
2022-08-19T03:21:48.724Z,75.60
2022-08-19T03:24:18.388Z,76.07
2022-08-19T03:26:52.442Z,76.18
2022-08-19T03:29:30.287Z,76.23
2022-08-19T03:32:06.115Z,75.91
2022-08-19T03:34:37.551Z,75.58
2022-08-19T03:37:11.562Z,75.30
2022-08-19T03:39:41.415Z,74.94
2022-08-19T03:42:32.285Z,74.81
2022-08-19T03:44:59.540Z,75.07
2022-08-19T03:47:27.732Z,74.95
2022-08-19T03:49:55.891Z,74.94
2022-08-19T03:52:23.885Z,75.01
2022-08-19T03:54:52.876Z,74.84
2022-08-19T03:57:21.028Z,74.39
2022-08-19T03:59:53.601Z,73.99
2022-08-19T04:02:22.569Z,73.71
2022-08-19T04:04:54.559Z,73.69
2022-08-19T04:07:22.645Z,73.69
2022-08-19T04:09:53.160Z,73.70
2022-08-19T04:12:21.638Z,73.83
2022-08-19T04:14:49.731Z,73.70
2022-08-19T04:17:17.883Z,73.57
2022-08-19T04:19:45.955Z,73.49
2022-08-19T04:22:13.988Z,73.40
2022-08-19T04:24:42.208Z,73.12
2022-08-19T04:27:10.477Z,73.14
2022-08-19T04:29:40.632Z,73.16
2022-08-19T04:32:09.884Z,72.76
2022-08-19T04:35:01.626Z,72.12
2022-08-19T04:37:35.054Z,72.24
2022-08-19T04:40:25.931Z,72.53
2022-08-19T04:42:54.738Z,72.53
2022-08-19T04:45:23.815Z,72.57
2022-08-19T04:47:58.833Z,72.60
2022-08-19T04:50:45.661Z,72.81
2022-08-19T04:53:13.834Z,73.05
2022-08-19T04:55:43.754Z,73.28
2022-08-19T04:58:11.753Z,73.63
2022-08-19T05:00:41.210Z,73.65
2022-08-19T05:03:10.060Z,73.85
2022-08-19T05:05:46.337Z,73.94
2022-08-19T05:08:31.098Z,74.56
2022-08-19T05:11:00.041Z,74.49
2022-08-19T05:13:28.086Z,74.23
2022-08-19T05:15:59.451Z,73.89
2022-08-19T05:18:46.577Z,73.98
2022-08-19T05:21:36.664Z,73.79
2022-08-19T05:24:09.647Z,73.54
2022-08-19T05:26:39.446Z,73.10
2022-08-19T05:29:09.604Z,72.85
2022-08-19T05:31:41.811Z,72.39
2022-08-19T05:34:18.314Z,72.08
2022-08-19T05:36:51.422Z,72.00
2022-08-19T05:39:21.551Z,71.71
2022-08-19T05:41:53.789Z,71.27
2022-08-19T05:44:23.159Z,71.33
2022-08-19T05:46:54.145Z,71.17
2022-08-19T05:49:24.003Z,70.44
2022-08-19T05:51:52.864Z,69.94
2022-08-19T05:54:21.079Z,69.32
2022-08-19T05:56:49.295Z,69.11
2022-08-19T05:59:18.698Z,68.56
2022-08-19T06:01:47.798Z,68.60
2022-08-19T06:04:15.967Z,68.13
2022-08-19T06:06:44.147Z,67.56
2022-08-19T06:09:12.320Z,67.18
2022-08-19T06:11:44.687Z,67.07
2022-08-19T06:14:20.543Z,66.79
2022-08-19T06:16:56.806Z,66.66
2022-08-19T06:19:25.463Z,66.28
2022-08-19T06:21:54.799Z,66.17
2022-08-19T06:24:25.867Z,66.54
2022-08-19T06:26:59.248Z,66.71
2022-08-19T06:29:31.078Z,66.48
2022-08-19T06:32:01.615Z,66.28
2022-08-19T06:34:32.364Z,65.81
2022-08-19T06:37:04.570Z,65.83
2022-08-19T06:39:35.731Z,65.94
2022-08-19T06:42:07.320Z,65.74
2022-08-19T06:44:42.553Z,65.37
2022-08-19T06:47:23.170Z,65.36
2022-08-19T06:50:03.542Z,65.00
2022-08-19T06:52:36.475Z,64.97
2022-08-19T06:55:06.787Z,65.10
2022-08-19T06:57:35.364Z,65.09
2022-08-19T07:00:10.894Z,64.88
2022-08-19T07:02:48.057Z,64.38
2022-08-19T07:05:22.230Z,64.13
2022-08-19T07:07:51.170Z,64.06
2022-08-19T07:10:20.305Z,64.04
2022-08-19T07:12:48.989Z,63.82
2022-08-19T07:19:35.261Z,62.42
2022-08-19T07:22:06.118Z,62.80
2022-08-19T07:24:34.651Z,62.79
2022-08-19T07:27:06.795Z,63.13
2022-08-19T07:29:43.232Z,63.32
2022-08-19T07:32:13.493Z,62.09
2022-08-19T07:34:41.739Z,61.21
2022-08-19T07:37:11.189Z,61.32
2022-08-19T07:39:40.427Z,61.70
2022-08-19T07:42:11.148Z,61.12
2022-08-19T07:44:43.139Z,61.35
2022-08-19T07:47:49.931Z,61.09
2022-08-19T07:50:12.078Z,60.26
2022-08-19T07:52:40.827Z,59.00
2022-08-19T07:55:40.110Z,58.91
2022-08-19T07:57:59.463Z,57.67
2022-08-19T08:00:27.655Z,57.99
2022-08-19T08:02:56.201Z,58.25
2022-08-19T08:05:44.332Z,57.40
2022-08-19T08:08:48.047Z,57.05
2022-08-19T08:11:20.583Z,56.36
2022-08-19T08:14:01.371Z,56.52
2022-08-19T08:16:39.516Z,55.18
2022-08-19T08:19:14.830Z,54.66
2022-08-19T08:21:59.658Z,55.12
2022-08-19T08:24:30.177Z,54.69
2022-08-19T08:27:01.372Z,54.34
2022-08-19T08:29:35.047Z,53.01
2022-08-19T08:32:14.176Z,52.96
2022-08-19T08:34:43.967Z,53.13
2022-08-19T08:37:12.432Z,52.50
2022-08-19T08:39:44.434Z,51.84
2022-08-19T08:42:27.004Z,51.13
2022-08-19T08:45:00.945Z,50.68
2022-08-19T08:47:35.985Z,49.33
2022-08-19T08:50:13.463Z,49.61
2022-08-19T08:52:47.281Z,48.74
2022-08-19T08:55:20.566Z,48.43
2022-08-19T08:57:48.720Z,49.48
2022-08-19T09:00:22.015Z,49.26
2022-08-19T09:02:50.641Z,49.30
2022-08-19T09:05:25.807Z,48.72
2022-08-19T09:08:06.912Z,48.97
2022-08-19T09:10:55.155Z,48.32
2022-08-19T09:13:37.245Z,47.05
2022-08-19T09:16:14.235Z,46.75
2022-08-19T09:18:43.539Z,46.54
2022-08-19T09:21:11.917Z,46.88
2022-08-19T09:23:40.499Z,46.77
2022-08-19T09:26:16.466Z,47.08
2022-08-19T09:28:48.312Z,46.20
2022-08-19T09:31:21.329Z,45.78
2022-08-19T09:33:52.365Z,44.99
2022-08-19T09:36:29.531Z,43.59
2022-08-19T09:39:16.356Z,42.83
2022-08-19T09:41:47.462Z,41.97
2022-08-19T09:44:18.190Z,41.23
2022-08-19T09:46:50.186Z,41.03
2022-08-19T09:49:20.852Z,40.88
2022-08-19T09:51:55.459Z,41.55
2022-08-19T09:54:25.171Z,41.59
2022-08-19T09:56:54.862Z,41.47
2022-08-19T09:59:23.442Z,41.43
2022-08-19T10:01:52.481Z,39.80
2022-08-19T10:04:22.427Z,40.12
2022-08-19T10:06:53.644Z,38.65
2022-08-19T10:09:33.866Z,38.92
2022-08-19T10:12:06.064Z,37.68
2022-08-19T10:14:35.732Z,38.28
2022-08-19T10:17:19.828Z,36.86
2022-08-19T10:19:55.262Z,35.54
2022-08-19T10:22:26.223Z,35.93
2022-08-19T10:24:55.065Z,34.47
2022-08-19T10:27:23.720Z,33.32
2022-08-19T10:29:54.964Z,34.01
2022-08-19T10:32:33.696Z,33.76
2022-08-19T10:35:09.225Z,32.46
2022-08-19T10:37:57.018Z,32.22
2022-08-19T10:40:27.984Z,33.81
2022-08-19T10:42:57.333Z,34.14
2022-08-19T10:45:28.295Z,33.25
2022-08-19T10:47:57.195Z,33.59
2022-08-19T10:50:45.341Z,34.02
2022-08-19T10:53:13.520Z,32.67
2022-08-19T10:56:00.389Z,33.01
2022-08-19T10:58:28.667Z,33.76
2022-08-19T11:00:59.873Z,33.20
2022-08-19T11:03:31.778Z,33.39
2022-08-19T11:06:01.472Z,33.02
2022-08-19T11:08:32.127Z,32.62
2022-08-19T11:11:02.361Z,32.27
2022-08-19T11:13:34.479Z,31.76
2022-08-19T11:16:08.222Z,32.14
2022-08-19T11:18:42.224Z,31.92
2022-08-19T11:21:21.382Z,32.61
2022-08-19T11:23:51.840Z,31.63
2022-08-19T11:26:21.836Z,31.57
2022-08-19T11:28:53.350Z,32.35
2022-08-19T11:31:23.889Z,32.35
2022-08-19T11:34:04.248Z,31.38
2022-08-19T11:36:36.413Z,31.21
2022-08-19T11:39:06.829Z,31.04
2022-08-19T11:41:35.866Z,31.23
2022-08-19T11:44:05.535Z,31.78
2022-08-19T11:46:33.715Z,30.31
2022-08-19T11:49:04.344Z,30.32
2022-08-19T11:51:33.548Z,31.45
2022-08-19T11:54:02.945Z,32.13
2022-08-19T11:56:30.990Z,31.10
2022-08-19T11:59:02.896Z,30.84
2022-08-19T12:01:31.099Z,31.00
2022-08-19T12:04:00.029Z,30.61
2022-08-19T12:06:30.920Z,30.79
2022-08-19T12:09:01.409Z,30.93
2022-08-19T12:11:31.276Z,30.83
2022-08-19T12:14:02.882Z,30.54
2022-08-19T12:16:32.965Z,30.77
2022-08-19T12:19:05.276Z,30.95
2022-08-19T12:21:37.150Z,29.83
2022-08-19T12:24:06.931Z,30.24
2022-08-19T12:26:36.028Z,30.36
2022-08-19T12:29:24.340Z,29.54
2022-08-19T12:31:52.666Z,30.32
2022-08-19T12:34:21.512Z,29.82
2022-08-19T12:36:50.882Z,30.30
2022-08-19T12:39:19.334Z,29.68
2022-08-19T12:41:54.050Z,28.89
2022-08-19T12:44:29.104Z,28.85
2022-08-19T12:46:58.499Z,27.86
2022-08-19T12:49:51.976Z,28.16
2022-08-19T12:52:23.162Z,27.61
2022-08-19T12:54:55.554Z,27.24
2022-08-19T12:57:27.037Z,27.83
2022-08-19T13:00:14.657Z,27.51
2022-08-19T13:02:46.593Z,26.99
2022-08-19T13:05:18.090Z,27.56
2022-08-19T13:07:46.257Z,27.42
2022-08-19T13:10:17.652Z,26.79
2022-08-19T13:12:48.402Z,27.05
2022-08-19T13:15:23.845Z,27.12
2022-08-19T13:17:54.438Z,27.05
2022-08-19T13:20:23.873Z,27.49
2022-08-19T13:22:52.711Z,27.20
2022-08-19T13:25:21.191Z,26.62
2022-08-19T13:27:51.843Z,26.37
2022-08-19T13:30:39.867Z,26.60
2022-08-19T13:33:12.431Z,26.09
2022-08-19T13:35:44.160Z,25.75
2022-08-19T13:38:13.780Z,26.33
2022-08-19T13:40:42.320Z,26.01
2022-08-19T13:43:13.554Z,26.14
2022-08-19T13:45:54.903Z,25.98
2022-08-19T13:48:24.593Z,25.62
2022-08-19T13:50:52.809Z,25.70
2022-08-19T13:53:21.081Z,25.31
2022-08-19T13:55:50.956Z,25.07
2022-08-19T13:58:19.274Z,25.40
2022-08-19T14:00:47.719Z,25.88
2022-08-19T14:03:16.233Z,25.98
2022-08-19T14:05:44.176Z,26.57
2022-08-19T14:08:15.274Z,27.55
2022-08-19T14:10:45.616Z,28.65
2022-08-19T14:13:17.586Z,28.76
2022-08-19T14:15:46.833Z,27.01
2022-08-19T14:18:16.975Z,26.76
2022-08-19T14:20:45.949Z,26.87
2022-08-19T14:23:14.858Z,27.87
2022-08-19T14:25:44.245Z,28.39
2022-08-19T14:28:12.414Z,28.11
2022-08-19T14:30:40.596Z,28.29
2022-08-19T14:33:09.596Z,27.92
2022-08-19T14:35:38.556Z,27.86
2022-08-19T14:38:15.766Z,27.80
2022-08-19T14:40:44.470Z,28.04
2022-08-19T14:43:13.145Z,28.11
2022-08-19T14:45:44.691Z,28.39
2022-08-19T14:48:19.283Z,28.72
2022-08-19T14:50:48.208Z,28.73
2022-08-19T14:53:17.611Z,28.55
2022-08-19T14:55:47.418Z,28.53
2022-08-19T14:58:29.420Z,28.38
2022-08-19T15:01:00.665Z,28.27
2022-08-19T15:03:30.314Z,28.17
2022-08-19T15:05:59.471Z,28.61
2022-08-19T15:08:29.389Z,27.98
2022-08-19T15:10:58.689Z,28.33
2022-08-19T15:13:28.387Z,28.77
2022-08-19T15:15:58.189Z,28.71
2022-08-19T15:18:26.282Z,28.78
2022-08-19T15:20:54.663Z,29.49
2022-08-19T15:23:23.041Z,29.34
2022-08-19T15:25:54.616Z,29.14
2022-08-19T15:28:24.204Z,29.12
2022-08-19T15:30:53.298Z,29.58
2022-08-19T15:33:21.884Z,29.64
2022-08-19T15:35:51.762Z,29.65
2022-08-19T15:38:26.215Z,29.67
2022-08-19T15:40:54.802Z,29.74
2022-08-19T15:43:23.008Z,29.94
2022-08-19T15:45:50.990Z,29.90
2022-08-19T15:48:19.369Z,29.95
2022-08-19T15:50:47.392Z,30.02
2022-08-19T15:53:16.500Z,30.54
2022-08-19T15:55:47.701Z,30.70
2022-08-19T15:58:34.984Z,31.15
2022-08-19T16:01:27.258Z,31.53
2022-08-19T16:04:16.402Z,31.55
2022-08-19T16:06:51.328Z,31.70
2022-08-19T16:09:26.648Z,32.07
2022-08-19T16:12:06.200Z,32.39
2022-08-19T16:14:36.304Z,32.93
2022-08-19T16:17:04.589Z,33.33
2022-08-19T16:19:33.574Z,33.42
2022-08-19T16:22:01.745Z,33.79
2022-08-19T16:24:29.898Z,33.89
2022-08-19T16:26:58.007Z,34.07
2022-08-19T16:29:33.185Z,34.53
2022-08-19T16:32:05.371Z,34.89
2022-08-19T16:34:33.902Z,35.04
2022-08-19T16:37:03.092Z,35.32
2022-08-19T16:39:31.742Z,35.67
2022-08-19T16:41:59.997Z,35.86
2022-08-19T16:44:29.707Z,36.17
2022-08-19T16:46:59.874Z,36.15
2022-08-19T16:49:54.368Z,36.33
2022-08-19T16:52:19.256Z,37.28
2022-08-19T16:54:48.458Z,37.86
2022-08-19T16:57:16.837Z,38.21
2022-08-19T16:59:48.822Z,38.72
2022-08-19T17:02:23.439Z,39.35
2022-08-19T17:04:57.202Z,40.22
2022-08-19T17:07:28.118Z,40.55
2022-08-19T17:09:57.254Z,41.84
2022-08-19T17:12:31.852Z,42.20
2022-08-19T17:15:02.851Z,42.40
2022-08-19T17:17:32.234Z,42.49
2022-08-19T17:20:02.964Z,42.83
2022-08-19T17:22:31.183Z,43.44
2022-08-19T17:24:59.337Z,44.20
2022-08-19T17:27:32.190Z,44.24
2022-08-19T17:30:02.923Z,44.42
2022-08-19T17:32:34.435Z,44.70
2022-08-19T17:35:04.655Z,45.34
2022-08-19T17:37:33.802Z,45.03
2022-08-19T17:40:07.275Z,45.71
2022-08-19T17:42:36.914Z,46.52
2022-08-19T17:45:06.111Z,47.08
2022-08-19T17:47:34.911Z,47.32
2022-08-19T17:50:07.678Z,47.42
2022-08-19T17:52:37.312Z,48.38
2022-08-19T17:55:07.371Z,48.59
2022-08-19T17:57:35.477Z,48.49
2022-08-19T18:00:08.910Z,49.10
2022-08-19T18:02:45.709Z,49.38
2022-08-19T18:05:14.326Z,49.59
2022-08-19T18:07:44.655Z,49.98
2022-08-19T18:10:13.748Z,50.23
2022-08-19T18:12:41.936Z,50.55
2022-08-19T18:15:10.615Z,51.31
2022-08-19T18:17:38.797Z,50.93
2022-08-19T18:20:13.533Z,51.10
2022-08-19T18:22:44.734Z,51.59
2022-08-19T18:25:14.810Z,51.77
2022-08-19T18:27:43.673Z,51.64
2022-08-19T18:30:13.692Z,51.86
2022-08-19T18:32:44.221Z,52.47
2022-08-19T18:35:15.364Z,52.37
2022-08-19T18:37:44.976Z,52.63
2022-08-19T18:40:35.303Z,52.95
2022-08-19T18:43:19.821Z,52.88
2022-08-19T18:46:07.109Z,53.43
2022-08-19T18:48:56.004Z,53.67
2022-08-19T18:51:28.439Z,53.93
2022-08-19T18:53:59.015Z,54.39
2022-08-19T18:56:29.460Z,54.38
2022-08-19T18:58:59.350Z,54.57
2022-08-19T19:01:34.156Z,54.54
2022-08-19T19:04:06.252Z,54.64
2022-08-19T19:06:38.182Z,55.24
2022-08-19T19:09:12.384Z,55.53
2022-08-19T19:11:45.754Z,55.56
2022-08-19T19:14:32.785Z,55.73
2022-08-19T19:17:13.828Z,56.31
2022-08-19T19:19:44.165Z,56.47
2022-08-19T19:22:17.125Z,56.80
2022-08-19T19:24:45.503Z,57.05
2022-08-19T19:27:15.853Z,57.03
2022-08-19T19:29:46.438Z,57.21
2022-08-19T19:32:27.764Z,57.83
2022-08-19T19:34:56.531Z,57.94
2022-08-19T19:37:24.649Z,58.20
2022-08-19T19:39:52.879Z,58.35
2022-08-19T19:42:23.949Z,58.35
2022-08-19T19:44:55.576Z,58.71
2022-08-19T19:47:24.690Z,58.86
2022-08-19T19:50:13.736Z,59.34
2022-08-19T19:52:45.618Z,59.44
2022-08-19T19:55:18.352Z,59.38
2022-08-19T19:57:50.340Z,59.81
2022-08-19T20:00:19.277Z,60.01
2022-08-19T20:02:50.313Z,60.23
2022-08-19T20:05:21.777Z,60.51
2022-08-19T20:08:10.998Z,60.93
2022-08-19T20:10:41.159Z,60.86
2022-08-19T20:13:11.064Z,60.90
2022-08-19T20:15:43.548Z,60.87
2022-08-19T20:18:14.665Z,60.75
2022-08-19T20:20:44.459Z,60.79
2022-08-19T20:23:13.560Z,61.19
2022-08-19T20:25:41.936Z,61.31
2022-08-19T20:28:12.432Z,61.48
2022-08-19T20:30:44.938Z,61.85
2022-08-19T20:33:16.090Z,62.00
2022-08-19T20:35:45.695Z,62.04
2022-08-19T20:38:14.179Z,62.11
2022-08-19T20:40:42.330Z,62.38
2022-08-19T20:43:13.722Z,62.40
2022-08-19T20:45:41.976Z,62.68
2022-08-19T20:48:12.503Z,62.75
2022-08-19T20:50:41.081Z,62.45
2022-08-19T20:53:12.435Z,62.83
2022-08-19T20:55:44.727Z,63.27
2022-08-19T20:58:13.806Z,63.38
2022-08-19T21:00:45.696Z,63.47
2022-08-19T21:03:19.159Z,63.70
2022-08-19T21:05:48.056Z,63.76
2022-08-19T21:08:19.911Z,63.58
2022-08-19T21:10:49.941Z,63.90
2022-08-19T21:13:20.086Z,64.11
2022-08-19T21:15:49.143Z,64.26
2022-08-19T21:18:20.123Z,64.24
2022-08-19T21:20:49.180Z,64.23
2022-08-19T21:23:23.228Z,64.04
2022-08-19T21:25:54.747Z,63.99
2022-08-19T21:28:29.918Z,64.00
2022-08-19T21:31:06.566Z,64.30
2022-08-19T21:33:34.736Z,64.36
2022-08-19T21:36:04.605Z,64.49
2022-08-19T21:38:33.539Z,64.49
2022-08-19T21:41:04.229Z,64.38
2022-08-19T21:43:37.226Z,64.67
2022-08-19T21:46:06.695Z,64.80
2022-08-19T21:48:35.570Z,64.80
2022-08-19T21:51:03.650Z,65.10
2022-08-19T21:53:34.644Z,65.20
2022-08-19T21:56:04.152Z,65.42
2022-08-19T21:58:33.769Z,65.53
2022-08-19T22:01:06.410Z,65.50
2022-08-19T22:03:37.231Z,65.67
2022-08-19T22:06:06.492Z,65.84
2022-08-19T22:08:34.672Z,65.76
2022-08-19T22:11:04.465Z,65.83
2022-08-19T22:13:40.488Z,66.08
2022-08-19T22:16:10.246Z,65.91
2022-08-19T22:18:38.625Z,66.17
2022-08-19T22:21:11.318Z,66.55
2022-08-19T22:23:41.845Z,66.60
2022-08-19T22:26:11.367Z,66.77
2022-08-19T22:28:39.850Z,67.06
2022-08-19T22:31:09.954Z,66.95
2022-08-19T22:33:38.634Z,66.87
2022-08-19T22:36:10.128Z,66.95
2022-08-19T22:38:38.560Z,66.86
2022-08-19T22:41:08.030Z,67.10
2022-08-19T22:43:37.731Z,66.96
2022-08-19T22:46:17.062Z,67.13
2022-08-19T22:48:47.339Z,67.10
2022-08-19T22:51:34.560Z,67.01
2022-08-19T22:54:02.935Z,67.03
2022-08-19T22:56:31.149Z,67.15
2022-08-19T22:58:59.288Z,67.15
2022-08-19T23:01:30.350Z,67.10
2022-08-19T23:03:59.761Z,67.13
2022-08-19T23:06:33.560Z,67.10
2022-08-19T23:09:07.274Z,67.38
2022-08-19T23:11:41.630Z,67.50
2022-08-19T23:14:12.719Z,67.80
2022-08-19T23:16:41.865Z,67.99
2022-08-19T23:19:11.136Z,67.86
2022-08-19T23:21:41.742Z,68.09
2022-08-19T23:24:10.835Z,68.28
2022-08-19T23:26:59.948Z,68.48
2022-08-19T23:29:47.377Z,68.72
2022-08-19T23:32:19.373Z,69.01
2022-08-19T23:34:47.967Z,68.79
2022-08-19T23:37:16.062Z,68.75
2022-08-19T23:39:44.622Z,68.71
2022-08-19T23:42:14.107Z,68.85
2022-08-19T23:44:52.351Z,68.55
2022-08-19T23:47:21.545Z,68.83
2022-08-19T23:49:50.810Z,69.36
2022-08-19T23:52:19.338Z,69.50
2022-08-19T23:54:47.592Z,70.00
2022-08-19T23:57:15.763Z,70.04
2022-08-19T23:59:45.687Z,69.80
